sensor_id;sensor_type;location;lat;lon;timestamp;P1;durP1;ratioP1;P2;durP2;ratioP2
32637;SDS011;19045;52.268;10.506;2022-10-17T00:00:10;6.93;;;1.73;;
32637;SDS011;19045;52.268;10.506;2022-10-17T00:02:37;4.45;;;1.90;;
32637;SDS011;19045;52.268;10.506;2022-10-17T00:05:06;2.17;;;1.60;;
32637;SDS011;19045;52.268;10.506;2022-10-17T00:07:33;2.85;;;1.75;;
32637;SDS011;19045;52.268;10.506;2022-10-17T00:10:00;2.97;;;1.60;;
32637;SDS011;19045;52.268;10.506;2022-10-17T00:12:27;3.60;;;1.70;;
32637;SDS011;19045;52.268;10.506;2022-10-17T00:14:54;4.25;;;1.90;;
32637;SDS011;19045;52.268;10.506;2022-10-17T00:17:21;2.90;;;1.65;;
32637;SDS011;19045;52.268;10.506;2022-10-17T00:19:48;3.00;;;1.65;;
32637;SDS011;19045;52.268;10.506;2022-10-17T00:22:20;4.97;;;1.98;;
32637;SDS011;19045;52.268;10.506;2022-10-17T00:24:46;3.03;;;1.30;;
32637;SDS011;19045;52.268;10.506;2022-10-17T00:27:13;3.80;;;1.98;;
32637;SDS011;19045;52.268;10.506;2022-10-17T00:29:40;3.25;;;2.17;;
32637;SDS011;19045;52.268;10.506;2022-10-17T00:32:06;4.50;;;1.80;;
32637;SDS011;19045;52.268;10.506;2022-10-17T00:34:33;5.88;;;1.85;;
32637;SDS011;19045;52.268;10.506;2022-10-17T00:37:00;3.78;;;1.90;;
32637;SDS011;19045;52.268;10.506;2022-10-17T00:39:28;3.90;;;2.25;;
32637;SDS011;19045;52.268;10.506;2022-10-17T00:41:54;4.20;;;1.88;;
32637;SDS011;19045;52.268;10.506;2022-10-17T00:47:27;6.82;;;2.30;;
32637;SDS011;19045;52.268;10.506;2022-10-17T00:49:55;5.50;;;2.40;;
32637;SDS011;19045;52.268;10.506;2022-10-17T00:52:23;4.07;;;2.67;;
32637;SDS011;19045;52.268;10.506;2022-10-17T00:54:54;4.22;;;2.30;;
32637;SDS011;19045;52.268;10.506;2022-10-17T00:57:23;3.88;;;2.53;;
32637;SDS011;19045;52.268;10.506;2022-10-17T00:59:53;5.80;;;2.47;;
32637;SDS011;19045;52.268;10.506;2022-10-17T01:02:21;3.15;;;2.70;;
32637;SDS011;19045;52.268;10.506;2022-10-17T01:04:49;6.47;;;2.90;;
32637;SDS011;19045;52.268;10.506;2022-10-17T01:07:19;9.05;;;3.28;;
32637;SDS011;19045;52.268;10.506;2022-10-17T01:09:45;3.42;;;2.78;;
32637;SDS011;19045;52.268;10.506;2022-10-17T01:12:16;3.47;;;2.88;;
32637;SDS011;19045;52.268;10.506;2022-10-17T01:14:49;9.10;;;3.20;;
32637;SDS011;19045;52.268;10.506;2022-10-17T01:17:27;3.65;;;2.55;;
32637;SDS011;19045;52.268;10.506;2022-10-17T01:20:17;3.83;;;3.05;;
32637;SDS011;19045;52.268;10.506;2022-10-17T01:23:12;6.07;;;2.72;;
32637;SDS011;19045;52.268;10.506;2022-10-17T01:25:51;4.20;;;2.70;;
32637;SDS011;19045;52.268;10.506;2022-10-17T01:28:28;5.50;;;2.60;;
32637;SDS011;19045;52.268;10.506;2022-10-17T01:31:11;3.60;;;2.80;;
32637;SDS011;19045;52.268;10.506;2022-10-17T01:33:46;4.22;;;2.95;;
32637;SDS011;19045;52.268;10.506;2022-10-17T01:36:31;4.05;;;2.53;;
32637;SDS011;19045;52.268;10.506;2022-10-17T01:39:04;7.78;;;3.05;;
32637;SDS011;19045;52.268;10.506;2022-10-17T01:41:39;3.90;;;2.67;;
32637;SDS011;19045;52.268;10.506;2022-10-17T01:44:10;4.28;;;2.95;;
32637;SDS011;19045;52.268;10.506;2022-10-17T01:46:41;3.25;;;2.95;;
32637;SDS011;19045;52.268;10.506;2022-10-17T01:49:12;5.55;;;3.08;;
32637;SDS011;19045;52.268;10.506;2022-10-17T01:51:43;4.20;;;3.10;;
32637;SDS011;19045;52.268;10.506;2022-10-17T01:54:15;5.25;;;3.15;;
32637;SDS011;19045;52.268;10.506;2022-10-17T01:56:46;4.20;;;2.88;;
32637;SDS011;19045;52.268;10.506;2022-10-17T01:59:19;4.10;;;2.95;;
32637;SDS011;19045;52.268;10.506;2022-10-17T02:01:51;2.97;;;2.67;;
32637;SDS011;19045;52.268;10.506;2022-10-17T02:04:20;4.32;;;3.30;;
32637;SDS011;19045;52.268;10.506;2022-10-17T02:06:47;4.60;;;3.42;;
32637;SDS011;19045;52.268;10.506;2022-10-17T02:09:18;3.42;;;3.03;;
32637;SDS011;19045;52.268;10.506;2022-10-17T02:11:49;5.65;;;3.50;;
32637;SDS011;19045;52.268;10.506;2022-10-17T02:14:24;5.55;;;3.45;;
32637;SDS011;19045;52.268;10.506;2022-10-17T02:17:06;4.32;;;3.22;;
32637;SDS011;19045;52.268;10.506;2022-10-17T02:19:45;9.65;;;3.75;;
32637;SDS011;19045;52.268;10.506;2022-10-17T02:22:23;4.72;;;3.22;;
32637;SDS011;19045;52.268;10.506;2022-10-17T02:24:58;3.75;;;3.25;;
32637;SDS011;19045;52.268;10.506;2022-10-17T02:27:31;4.72;;;3.03;;
32637;SDS011;19045;52.268;10.506;2022-10-17T02:30:05;5.75;;;3.08;;
32637;SDS011;19045;52.268;10.506;2022-10-17T02:32:39;6.95;;;3.72;;
32637;SDS011;19045;52.268;10.506;2022-10-17T02:35:11;6.00;;;3.42;;
32637;SDS011;19045;52.268;10.506;2022-10-17T02:37:40;5.97;;;3.20;;
32637;SDS011;19045;52.268;10.506;2022-10-17T02:40:11;6.28;;;3.70;;
32637;SDS011;19045;52.268;10.506;2022-10-17T02:42:40;4.95;;;3.70;;
32637;SDS011;19045;52.268;10.506;2022-10-17T02:45:12;5.13;;;3.30;;
32637;SDS011;19045;52.268;10.506;2022-10-17T02:47:45;5.05;;;3.58;;
32637;SDS011;19045;52.268;10.506;2022-10-17T02:50:19;7.38;;;3.83;;
32637;SDS011;19045;52.268;10.506;2022-10-17T02:52:54;5.88;;;3.63;;
32637;SDS011;19045;52.268;10.506;2022-10-17T02:55:27;6.93;;;3.72;;
32637;SDS011;19045;52.268;10.506;2022-10-17T02:57:57;4.13;;;3.50;;
32637;SDS011;19045;52.268;10.506;2022-10-17T03:00:29;6.25;;;3.85;;
32637;SDS011;19045;52.268;10.506;2022-10-17T03:02:58;4.72;;;3.70;;
32637;SDS011;19045;52.268;10.506;2022-10-17T03:05:25;6.80;;;3.63;;
32637;SDS011;19045;52.268;10.506;2022-10-17T03:07:54;3.85;;;3.35;;
32637;SDS011;19045;52.268;10.506;2022-10-17T03:10:21;4.35;;;3.75;;
32637;SDS011;19045;52.268;10.506;2022-10-17T03:12:48;6.88;;;3.42;;
32637;SDS011;19045;52.268;10.506;2022-10-17T03:15:15;6.30;;;3.58;;
32637;SDS011;19045;52.268;10.506;2022-10-17T03:17:41;6.97;;;3.28;;
32637;SDS011;19045;52.268;10.506;2022-10-17T03:20:10;5.78;;;3.42;;
32637;SDS011;19045;52.268;10.506;2022-10-17T03:22:36;5.15;;;3.22;;
32637;SDS011;19045;52.268;10.506;2022-10-17T03:25:03;7.43;;;3.50;;
32637;SDS011;19045;52.268;10.506;2022-10-17T03:27:30;7.57;;;3.75;;
32637;SDS011;19045;52.268;10.506;2022-10-17T03:29:57;5.03;;;3.65;;
32637;SDS011;19045;52.268;10.506;2022-10-17T03:32:23;5.15;;;3.90;;
32637;SDS011;19045;52.268;10.506;2022-10-17T03:34:50;6.55;;;3.75;;
32637;SDS011;19045;52.268;10.506;2022-10-17T03:37:18;3.97;;;3.40;;
32637;SDS011;19045;52.268;10.506;2022-10-17T03:39:44;6.47;;;4.38;;
32637;SDS011;19045;52.268;10.506;2022-10-17T03:42:11;7.10;;;3.60;;
32637;SDS011;19045;52.268;10.506;2022-10-17T03:44:37;8.32;;;3.85;;
32637;SDS011;19045;52.268;10.506;2022-10-17T03:47:04;8.90;;;4.43;;
32637;SDS011;19045;52.268;10.506;2022-10-17T03:49:31;4.97;;;3.80;;
32637;SDS011;19045;52.268;10.506;2022-10-17T03:51:57;8.55;;;4.18;;
32637;SDS011;19045;52.268;10.506;2022-10-17T03:54:25;6.47;;;4.22;;
32637;SDS011;19045;52.268;10.506;2022-10-17T03:56:52;5.40;;;3.97;;
32637;SDS011;19045;52.268;10.506;2022-10-17T03:59:19;3.63;;;3.22;;
32637;SDS011;19045;52.268;10.506;2022-10-17T04:01:45;7.18;;;3.95;;
32637;SDS011;19045;52.268;10.506;2022-10-17T04:04:12;5.75;;;3.70;;
32637;SDS011;19045;52.268;10.506;2022-10-17T04:06:38;4.85;;;4.03;;
32637;SDS011;19045;52.268;10.506;2022-10-17T04:09:05;7.97;;;4.57;;
32637;SDS011;19045;52.268;10.506;2022-10-17T04:11:34;7.35;;;4.68;;
32637;SDS011;19045;52.268;10.506;2022-10-17T04:14:00;6.50;;;4.30;;
32637;SDS011;19045;52.268;10.506;2022-10-17T04:16:27;5.55;;;4.35;;
32637;SDS011;19045;52.268;10.506;2022-10-17T04:18:54;9.63;;;4.10;;
32637;SDS011;19045;52.268;10.506;2022-10-17T04:21:23;7.07;;;3.80;;
32637;SDS011;19045;52.268;10.506;2022-10-17T04:23:54;6.25;;;3.92;;
32637;SDS011;19045;52.268;10.506;2022-10-17T04:26:21;4.75;;;3.90;;
32637;SDS011;19045;52.268;10.506;2022-10-17T04:28:49;6.28;;;3.70;;
32637;SDS011;19045;52.268;10.506;2022-10-17T04:31:17;5.00;;;3.60;;
32637;SDS011;19045;52.268;10.506;2022-10-17T04:33:45;6.70;;;3.78;;
32637;SDS011;19045;52.268;10.506;2022-10-17T04:36:14;5.40;;;3.85;;
32637;SDS011;19045;52.268;10.506;2022-10-17T04:38:41;5.07;;;3.58;;
32637;SDS011;19045;52.268;10.506;2022-10-17T04:41:09;5.93;;;3.70;;
32637;SDS011;19045;52.268;10.506;2022-10-17T04:43:37;6.15;;;3.42;;
32637;SDS011;19045;52.268;10.506;2022-10-17T04:46:06;5.80;;;3.50;;
32637;SDS011;19045;52.268;10.506;2022-10-17T04:48:34;6.97;;;3.85;;
32637;SDS011;19045;52.268;10.506;2022-10-17T04:51:01;6.32;;;3.58;;
32637;SDS011;19045;52.268;10.506;2022-10-17T04:53:29;6.80;;;4.30;;
32637;SDS011;19045;52.268;10.506;2022-10-17T04:55:57;4.68;;;3.90;;
32637;SDS011;19045;52.268;10.506;2022-10-17T04:58:24;10.57;;;4.15;;
32637;SDS011;19045;52.268;10.506;2022-10-17T05:00:51;5.57;;;3.35;;
32637;SDS011;19045;52.268;10.506;2022-10-17T05:03:19;7.95;;;3.47;;
32637;SDS011;19045;52.268;10.506;2022-10-17T05:05:45;6.20;;;3.38;;
32637;SDS011;19045;52.268;10.506;2022-10-17T05:08:12;12.85;;;3.30;;
32637;SDS011;19045;52.268;10.506;2022-10-17T05:10:39;6.45;;;3.58;;
32637;SDS011;19045;52.268;10.506;2022-10-17T05:13:07;5.65;;;3.60;;
32637;SDS011;19045;52.268;10.506;2022-10-17T05:15:34;5.72;;;3.40;;
32637;SDS011;19045;52.268;10.506;2022-10-17T05:18:02;8.05;;;3.92;;
32637;SDS011;19045;52.268;10.506;2022-10-17T05:20:31;6.03;;;4.13;;
32637;SDS011;19045;52.268;10.506;2022-10-17T05:22:58;6.78;;;3.50;;
32637;SDS011;19045;52.268;10.506;2022-10-17T05:25:25;5.78;;;4.05;;
32637;SDS011;19045;52.268;10.506;2022-10-17T05:27:52;5.68;;;3.90;;
32637;SDS011;19045;52.268;10.506;2022-10-17T05:30:19;5.55;;;4.05;;
32637;SDS011;19045;52.268;10.506;2022-10-17T05:32:46;7.80;;;4.47;;
32637;SDS011;19045;52.268;10.506;2022-10-17T05:35:12;7.35;;;4.03;;
32637;SDS011;19045;52.268;10.506;2022-10-17T05:37:41;5.53;;;4.38;;
32637;SDS011;19045;52.268;10.506;2022-10-17T05:40:08;5.07;;;3.83;;
32637;SDS011;19045;52.268;10.506;2022-10-17T05:42:35;6.72;;;4.85;;
32637;SDS011;19045;52.268;10.506;2022-10-17T05:45:02;10.50;;;4.32;;
32637;SDS011;19045;52.268;10.506;2022-10-17T05:47:29;6.25;;;4.43;;
32637;SDS011;19045;52.268;10.506;2022-10-17T05:49:56;6.28;;;4.72;;
32637;SDS011;19045;52.268;10.506;2022-10-17T05:52:22;8.57;;;4.90;;
32637;SDS011;19045;52.268;10.506;2022-10-17T05:54:50;9.25;;;4.95;;
32637;SDS011;19045;52.268;10.506;2022-10-17T05:57:17;6.90;;;4.78;;
32637;SDS011;19045;52.268;10.506;2022-10-17T05:59:44;9.98;;;5.60;;
32637;SDS011;19045;52.268;10.506;2022-10-17T06:02:11;6.13;;;4.60;;
32637;SDS011;19045;52.268;10.506;2022-10-17T06:04:37;8.45;;;4.30;;
32637;SDS011;19045;52.268;10.506;2022-10-17T06:07:09;6.33;;;4.73;;
32637;SDS011;19045;52.268;10.506;2022-10-17T06:09:36;7.43;;;4.93;;
32637;SDS011;19045;52.268;10.506;2022-10-17T06:12:04;9.38;;;4.93;;
32637;SDS011;19045;52.268;10.506;2022-10-17T06:14:30;8.35;;;5.00;;
32637;SDS011;19045;52.268;10.506;2022-10-17T06:16:57;12.27;;;5.15;;
32637;SDS011;19045;52.268;10.506;2022-10-17T06:19:24;8.73;;;4.50;;
32637;SDS011;19045;52.268;10.506;2022-10-17T06:21:51;5.97;;;4.55;;
32637;SDS011;19045;52.268;10.506;2022-10-17T06:24:17;7.93;;;4.63;;
32637;SDS011;19045;52.268;10.506;2022-10-17T06:26:44;8.00;;;5.10;;
32637;SDS011;19045;52.268;10.506;2022-10-17T06:29:13;6.60;;;4.10;;
32637;SDS011;19045;52.268;10.506;2022-10-17T06:31:39;7.03;;;4.43;;
32637;SDS011;19045;52.268;10.506;2022-10-17T06:34:06;8.60;;;4.30;;
32637;SDS011;19045;52.268;10.506;2022-10-17T06:36:32;8.75;;;4.43;;
32637;SDS011;19045;52.268;10.506;2022-10-17T06:38:59;7.93;;;3.85;;
32637;SDS011;19045;52.268;10.506;2022-10-17T06:41:26;9.23;;;5.05;;
32637;SDS011;19045;52.268;10.506;2022-10-17T06:43:53;10.48;;;4.10;;
32637;SDS011;19045;52.268;10.506;2022-10-17T06:46:21;7.78;;;4.53;;
32637;SDS011;19045;52.268;10.506;2022-10-17T06:48:49;7.05;;;4.05;;
32637;SDS011;19045;52.268;10.506;2022-10-17T06:51:16;6.72;;;4.10;;
32637;SDS011;19045;52.268;10.506;2022-10-17T06:53:42;7.88;;;4.15;;
32637;SDS011;19045;52.268;10.506;2022-10-17T06:56:09;7.15;;;4.18;;
32637;SDS011;19045;52.268;10.506;2022-10-17T06:58:36;7.20;;;3.88;;
32637;SDS011;19045;52.268;10.506;2022-10-17T07:01:07;11.88;;;3.88;;
32637;SDS011;19045;52.268;10.506;2022-10-17T07:03:36;11.98;;;4.70;;
32637;SDS011;19045;52.268;10.506;2022-10-17T07:06:04;4.68;;;3.40;;
32637;SDS011;19045;52.268;10.506;2022-10-17T07:08:31;8.07;;;4.07;;
32637;SDS011;19045;52.268;10.506;2022-10-17T07:10:58;6.18;;;3.25;;
32637;SDS011;19045;52.268;10.506;2022-10-17T07:13:24;6.03;;;3.45;;
32637;SDS011;19045;52.268;10.506;2022-10-17T07:15:51;7.90;;;3.75;;
32637;SDS011;19045;52.268;10.506;2022-10-17T07:18:21;6.00;;;3.25;;
32637;SDS011;19045;52.268;10.506;2022-10-17T07:20:52;8.93;;;3.78;;
32637;SDS011;19045;52.268;10.506;2022-10-17T07:23:19;4.60;;;3.17;;
32637;SDS011;19045;52.268;10.506;2022-10-17T07:25:46;4.13;;;3.15;;
32637;SDS011;19045;52.268;10.506;2022-10-17T07:28:13;5.10;;;2.80;;
32637;SDS011;19045;52.268;10.506;2022-10-17T07:30:40;4.43;;;2.72;;
32637;SDS011;19045;52.268;10.506;2022-10-17T07:33:08;4.82;;;2.22;;
32637;SDS011;19045;52.268;10.506;2022-10-17T07:35:36;4.30;;;2.70;;
32637;SDS011;19045;52.268;10.506;2022-10-17T07:38:06;4.63;;;2.75;;
32637;SDS011;19045;52.268;10.506;2022-10-17T07:40:33;4.80;;;2.78;;
32637;SDS011;19045;52.268;10.506;2022-10-17T07:43:00;6.07;;;3.17;;
32637;SDS011;19045;52.268;10.506;2022-10-17T07:45:26;3.92;;;3.00;;
32637;SDS011;19045;52.268;10.506;2022-10-17T07:47:54;6.15;;;3.35;;
32637;SDS011;19045;52.268;10.506;2022-10-17T07:50:21;4.45;;;2.65;;
32637;SDS011;19045;52.268;10.506;2022-10-17T07:52:48;6.30;;;3.20;;
32637;SDS011;19045;52.268;10.506;2022-10-17T07:55:16;7.53;;;3.10;;
32637;SDS011;19045;52.268;10.506;2022-10-17T07:57:43;3.90;;;2.63;;
32637;SDS011;19045;52.268;10.506;2022-10-17T08:00:10;6.18;;;2.95;;
32637;SDS011;19045;52.268;10.506;2022-10-17T08:02:37;6.00;;;2.95;;
32637;SDS011;19045;52.268;10.506;2022-10-17T08:05:04;6.53;;;3.40;;
32637;SDS011;19045;52.268;10.506;2022-10-17T08:07:31;6.68;;;2.58;;
32637;SDS011;19045;52.268;10.506;2022-10-17T08:09:58;5.80;;;2.60;;
32637;SDS011;19045;52.268;10.506;2022-10-17T08:12:26;4.28;;;2.00;;
32637;SDS011;19045;52.268;10.506;2022-10-17T08:14:56;5.85;;;2.90;;
32637;SDS011;19045;52.268;10.506;2022-10-17T08:17:22;5.78;;;2.58;;
32637;SDS011;19045;52.268;10.506;2022-10-17T08:19:49;4.05;;;2.33;;
32637;SDS011;19045;52.268;10.506;2022-10-17T08:22:16;3.95;;;2.60;;
32637;SDS011;19045;52.268;10.506;2022-10-17T08:24:42;4.90;;;2.20;;
32637;SDS011;19045;52.268;10.506;2022-10-17T08:27:10;6.15;;;2.40;;
32637;SDS011;19045;52.268;10.506;2022-10-17T08:29:39;7.00;;;2.40;;
32637;SDS011;19045;52.268;10.506;2022-10-17T08:32:06;5.38;;;2.08;;
32637;SDS011;19045;52.268;10.506;2022-10-17T08:34:33;3.78;;;1.98;;
32637;SDS011;19045;52.268;10.506;2022-10-17T08:37:00;6.85;;;2.20;;
32637;SDS011;19045;52.268;10.506;2022-10-17T08:39:27;3.80;;;2.00;;
32637;SDS011;19045;52.268;10.506;2022-10-17T08:41:57;5.68;;;2.40;;
32637;SDS011;19045;52.268;10.506;2022-10-17T08:44:34;5.47;;;2.03;;
32637;SDS011;19045;52.268;10.506;2022-10-17T08:47:15;3.03;;;1.80;;
32637;SDS011;19045;52.268;10.506;2022-10-17T08:49:47;4.55;;;2.17;;
32637;SDS011;19045;52.268;10.506;2022-10-17T08:52:18;6.60;;;2.20;;
32637;SDS011;19045;52.268;10.506;2022-10-17T08:54:58;3.30;;;1.80;;
32637;SDS011;19045;52.268;10.506;2022-10-17T08:57:25;6.63;;;2.85;;
32637;SDS011;19045;52.268;10.506;2022-10-17T08:59:54;4.15;;;1.92;;
32637;SDS011;19045;52.268;10.506;2022-10-17T09:02:38;4.20;;;2.13;;
32637;SDS011;19045;52.268;10.506;2022-10-17T09:08:03;3.55;;;1.83;;
32637;SDS011;19045;52.268;10.506;2022-10-17T09:10:39;4.22;;;2.15;;
32637;SDS011;19045;52.268;10.506;2022-10-17T09:13:17;3.70;;;1.90;;
32637;SDS011;19045;52.268;10.506;2022-10-17T09:15:56;4.85;;;1.85;;
32637;SDS011;19045;52.268;10.506;2022-10-17T09:18:31;8.10;;;1.92;;
32637;SDS011;19045;52.268;10.506;2022-10-17T09:21:04;5.68;;;2.00;;
32637;SDS011;19045;52.268;10.506;2022-10-17T09:23:42;3.17;;;1.70;;
32637;SDS011;19045;52.268;10.506;2022-10-17T09:26:12;6.47;;;1.92;;
32637;SDS011;19045;52.268;10.506;2022-10-17T09:28:40;8.38;;;2.25;;
32637;SDS011;19045;52.268;10.506;2022-10-17T09:31:11;8.00;;;1.73;;
32637;SDS011;19045;52.268;10.506;2022-10-17T09:33:44;7.93;;;2.30;;
32637;SDS011;19045;52.268;10.506;2022-10-17T09:36:14;6.55;;;1.65;;
32637;SDS011;19045;52.268;10.506;2022-10-17T09:38:44;12.07;;;1.90;;
32637;SDS011;19045;52.268;10.506;2022-10-17T09:41:17;5.05;;;1.95;;
32637;SDS011;19045;52.268;10.506;2022-10-17T09:43:46;9.43;;;2.30;;
32637;SDS011;19045;52.268;10.506;2022-10-17T09:46:16;5.88;;;1.95;;
32637;SDS011;19045;52.268;10.506;2022-10-17T09:48:50;2.95;;;2.30;;
32637;SDS011;19045;52.268;10.506;2022-10-17T09:51:21;9.48;;;2.22;;
32637;SDS011;19045;52.268;10.506;2022-10-17T09:53:49;5.55;;;2.13;;
32637;SDS011;19045;52.268;10.506;2022-10-17T09:56:19;9.27;;;2.47;;
32637;SDS011;19045;52.268;10.506;2022-10-17T09:58:46;13.77;;;2.20;;
32637;SDS011;19045;52.268;10.506;2022-10-17T10:01:19;2.72;;;1.73;;
32637;SDS011;19045;52.268;10.506;2022-10-17T10:03:47;5.03;;;1.90;;
32637;SDS011;19045;52.268;10.506;2022-10-17T10:06:32;7.53;;;2.28;;
32637;SDS011;19045;52.268;10.506;2022-10-17T10:08:59;12.70;;;2.38;;
32637;SDS011;19045;52.268;10.506;2022-10-17T10:11:43;5.35;;;1.90;;
32637;SDS011;19045;52.268;10.506;2022-10-17T10:14:18;5.95;;;2.22;;
32637;SDS011;19045;52.268;10.506;2022-10-17T10:16:49;5.72;;;2.40;;
32637;SDS011;19045;52.268;10.506;2022-10-17T10:19:25;5.75;;;2.10;;
32637;SDS011;19045;52.268;10.506;2022-10-17T10:21:56;7.18;;;2.13;;
32637;SDS011;19045;52.268;10.506;2022-10-17T10:24:26;6.82;;;2.22;;
32637;SDS011;19045;52.268;10.506;2022-10-17T10:27:00;6.85;;;2.53;;
32637;SDS011;19045;52.268;10.506;2022-10-17T10:32:07;3.72;;;2.38;;
32637;SDS011;19045;52.268;10.506;2022-10-17T10:34:35;8.57;;;2.70;;
32637;SDS011;19045;52.268;10.506;2022-10-17T10:37:14;9.05;;;2.92;;
32637;SDS011;19045;52.268;10.506;2022-10-17T10:39:45;8.80;;;2.90;;
32637;SDS011;19045;52.268;10.506;2022-10-17T10:42:22;21.55;;;3.10;;
32637;SDS011;19045;52.268;10.506;2022-10-17T10:44:52;5.70;;;2.38;;
32637;SDS011;19045;52.268;10.506;2022-10-17T10:47:23;10.85;;;2.72;;
32637;SDS011;19045;52.268;10.506;2022-10-17T10:49:52;5.78;;;2.00;;
32637;SDS011;19045;52.268;10.506;2022-10-17T10:52:39;7.82;;;2.20;;
32637;SDS011;19045;52.268;10.506;2022-10-17T10:55:14;8.07;;;1.88;;
32637;SDS011;19045;52.268;10.506;2022-10-17T10:57:42;10.73;;;2.15;;
32637;SDS011;19045;52.268;10.506;2022-10-17T11:00:14;3.72;;;1.70;;
32637;SDS011;19045;52.268;10.506;2022-10-17T11:02:46;8.88;;;2.20;;
32637;SDS011;19045;52.268;10.506;2022-10-17T11:05:21;8.85;;;2.05;;
32637;SDS011;19045;52.268;10.506;2022-10-17T11:07:56;7.97;;;2.22;;
32637;SDS011;19045;52.268;10.506;2022-10-17T11:10:30;3.28;;;1.63;;
32637;SDS011;19045;52.268;10.506;2022-10-17T11:13:03;7.57;;;2.22;;
32637;SDS011;19045;52.268;10.506;2022-10-17T11:15:36;8.93;;;2.00;;
32637;SDS011;19045;52.268;10.506;2022-10-17T11:18:10;7.93;;;1.85;;
32637;SDS011;19045;52.268;10.506;2022-10-17T11:20:47;5.30;;;2.47;;
32637;SDS011;19045;52.268;10.506;2022-10-17T11:23:19;3.85;;;1.80;;
32637;SDS011;19045;52.268;10.506;2022-10-17T11:25:53;5.35;;;1.65;;
32637;SDS011;19045;52.268;10.506;2022-10-17T11:28:24;4.80;;;1.90;;
32637;SDS011;19045;52.268;10.506;2022-10-17T11:30:53;3.70;;;1.60;;
32637;SDS011;19045;52.268;10.506;2022-10-17T11:33:26;6.22;;;2.03;;
32637;SDS011;19045;52.268;10.506;2022-10-17T11:35:56;4.15;;;1.85;;
32637;SDS011;19045;52.268;10.506;2022-10-17T11:38:32;6.55;;;1.90;;
32637;SDS011;19045;52.268;10.506;2022-10-17T11:41:05;6.50;;;1.92;;
32637;SDS011;19045;52.268;10.506;2022-10-17T11:43:39;7.90;;;1.90;;
32637;SDS011;19045;52.268;10.506;2022-10-17T11:46:11;8.68;;;1.80;;
32637;SDS011;19045;52.268;10.506;2022-10-17T11:48:43;5.15;;;1.98;;
32637;SDS011;19045;52.268;10.506;2022-10-17T11:51:16;7.43;;;2.10;;
32637;SDS011;19045;52.268;10.506;2022-10-17T11:53:46;5.20;;;1.80;;
32637;SDS011;19045;52.268;10.506;2022-10-17T11:56:19;8.02;;;1.75;;
32637;SDS011;19045;52.268;10.506;2022-10-17T11:58:53;4.13;;;1.67;;
32637;SDS011;19045;52.268;10.506;2022-10-17T12:01:29;7.68;;;1.60;;
32637;SDS011;19045;52.268;10.506;2022-10-17T12:06:58;2.35;;;1.40;;
32637;SDS011;19045;52.268;10.506;2022-10-17T12:09:37;6.50;;;2.00;;
32637;SDS011;19045;52.268;10.506;2022-10-17T12:12:10;4.40;;;1.80;;
32637;SDS011;19045;52.268;10.506;2022-10-17T12:14:50;7.20;;;1.60;;
32637;SDS011;19045;52.268;10.506;2022-10-17T12:17:21;4.88;;;1.23;;
32637;SDS011;19045;52.268;10.506;2022-10-17T12:19:54;3.88;;;1.35;;
32637;SDS011;19045;52.268;10.506;2022-10-17T12:22:55;4.28;;;1.42;;
32637;SDS011;19045;52.268;10.506;2022-10-17T12:25:26;12.77;;;2.20;;
32637;SDS011;19045;52.268;10.506;2022-10-17T12:30:48;3.72;;;1.30;;
32637;SDS011;19045;52.268;10.506;2022-10-17T12:35:48;3.20;;;1.85;;
32637;SDS011;19045;52.268;10.506;2022-10-17T12:38:25;9.15;;;1.77;;
32637;SDS011;19045;52.268;10.506;2022-10-17T12:41:00;7.95;;;1.60;;
32637;SDS011;19045;52.268;10.506;2022-10-17T12:52:16;4.65;;;1.52;;
32637;SDS011;19045;52.268;10.506;2022-10-17T12:54:45;4.50;;;1.60;;
32637;SDS011;19045;52.268;10.506;2022-10-17T12:57:17;2.88;;;1.65;;
32637;SDS011;19045;52.268;10.506;2022-10-17T12:59:47;6.68;;;1.80;;
32637;SDS011;19045;52.268;10.506;2022-10-17T13:02:17;5.97;;;1.77;;
32637;SDS011;19045;52.268;10.506;2022-10-17T13:04:46;2.53;;;1.80;;
32637;SDS011;19045;52.268;10.506;2022-10-17T13:07:17;6.50;;;1.60;;
32637;SDS011;19045;52.268;10.506;2022-10-17T13:09:46;9.45;;;1.40;;
32637;SDS011;19045;52.268;10.506;2022-10-17T13:12:14;2.60;;;1.58;;
32637;SDS011;19045;52.268;10.506;2022-10-17T13:14:46;2.70;;;1.60;;
32637;SDS011;19045;52.268;10.506;2022-10-17T13:17:20;10.20;;;1.85;;
32637;SDS011;19045;52.268;10.506;2022-10-17T13:19:49;6.32;;;1.73;;
32637;SDS011;19045;52.268;10.506;2022-10-17T13:22:18;3.42;;;1.90;;
32637;SDS011;19045;52.268;10.506;2022-10-17T13:24:46;5.22;;;2.05;;
32637;SDS011;19045;52.268;10.506;2022-10-17T13:27:22;5.80;;;1.60;;
32637;SDS011;19045;52.268;10.506;2022-10-17T13:29:51;8.88;;;1.98;;
32637;SDS011;19045;52.268;10.506;2022-10-17T13:32:17;6.50;;;1.55;;
32637;SDS011;19045;52.268;10.506;2022-10-17T13:34:44;4.57;;;1.67;;
32637;SDS011;19045;52.268;10.506;2022-10-17T13:37:11;5.18;;;1.40;;
32637;SDS011;19045;52.268;10.506;2022-10-17T13:39:42;4.97;;;1.40;;
32637;SDS011;19045;52.268;10.506;2022-10-17T13:42:15;5.88;;;1.75;;
32637;SDS011;19045;52.268;10.506;2022-10-17T13:44:46;4.22;;;1.88;;
32637;SDS011;19045;52.268;10.506;2022-10-17T13:47:19;6.00;;;1.30;;
32637;SDS011;19045;52.268;10.506;2022-10-17T13:49:47;5.78;;;1.75;;
32637;SDS011;19045;52.268;10.506;2022-10-17T13:52:16;5.43;;;1.60;;
32637;SDS011;19045;52.268;10.506;2022-10-17T13:54:46;2.58;;;1.42;;
32637;SDS011;19045;52.268;10.506;2022-10-17T13:57:17;9.57;;;2.00;;
32637;SDS011;19045;52.268;10.506;2022-10-17T13:59:46;10.82;;;1.98;;
32637;SDS011;19045;52.268;10.506;2022-10-17T14:02:16;8.40;;;1.77;;
32637;SDS011;19045;52.268;10.506;2022-10-17T14:04:44;8.48;;;1.70;;
32637;SDS011;19045;52.268;10.506;2022-10-17T14:07:18;7.40;;;1.75;;
32637;SDS011;19045;52.268;10.506;2022-10-17T14:09:51;6.07;;;1.92;;
32637;SDS011;19045;52.268;10.506;2022-10-17T14:12:18;4.40;;;2.30;;
32637;SDS011;19045;52.268;10.506;2022-10-17T14:14:47;23.85;;;2.67;;
32637;SDS011;19045;52.268;10.506;2022-10-17T14:17:19;6.57;;;2.10;;
32637;SDS011;19045;52.268;10.506;2022-10-17T14:19:49;5.03;;;1.50;;
32637;SDS011;19045;52.268;10.506;2022-10-17T14:22:24;7.10;;;2.00;;
32637;SDS011;19045;52.268;10.506;2022-10-17T14:24:54;12.00;;;2.30;;
32637;SDS011;19045;52.268;10.506;2022-10-17T14:27:25;3.13;;;2.00;;
32637;SDS011;19045;52.268;10.506;2022-10-17T14:29:54;5.43;;;1.65;;
32637;SDS011;19045;52.268;10.506;2022-10-17T14:32:24;14.23;;;2.38;;
32637;SDS011;19045;52.268;10.506;2022-10-17T14:34:53;4.05;;;1.80;;
32637;SDS011;19045;52.268;10.506;2022-10-17T14:37:26;10.73;;;1.90;;
32637;SDS011;19045;52.268;10.506;2022-10-17T14:39:59;5.43;;;1.98;;
32637;SDS011;19045;52.268;10.506;2022-10-17T14:42:26;10.35;;;2.58;;
32637;SDS011;19045;52.268;10.506;2022-10-17T14:44:54;4.53;;;2.08;;
32637;SDS011;19045;52.268;10.506;2022-10-17T14:47:30;6.82;;;1.85;;
32637;SDS011;19045;52.268;10.506;2022-10-17T14:50:02;10.27;;;2.33;;
32637;SDS011;19045;52.268;10.506;2022-10-17T14:52:32;11.52;;;2.40;;
32637;SDS011;19045;52.268;10.506;2022-10-17T14:55:15;7.43;;;2.15;;
32637;SDS011;19045;52.268;10.506;2022-10-17T14:57:47;4.03;;;1.70;;
32637;SDS011;19045;52.268;10.506;2022-10-17T15:00:14;11.43;;;2.17;;
32637;SDS011;19045;52.268;10.506;2022-10-17T15:02:42;6.10;;;2.47;;
32637;SDS011;19045;52.268;10.506;2022-10-17T15:05:10;9.65;;;2.45;;
32637;SDS011;19045;52.268;10.506;2022-10-17T15:07:37;7.72;;;2.55;;
32637;SDS011;19045;52.268;10.506;2022-10-17T15:10:05;12.43;;;2.50;;
32637;SDS011;19045;52.268;10.506;2022-10-17T15:12:48;4.53;;;2.03;;
32637;SDS011;19045;52.268;10.506;2022-10-17T15:15:17;4.95;;;2.40;;